Time;durP1;ratioP1;P1;durP2;ratioP2;P2;SDS_P1;SDS_P2;PMS_P1;PMS_P2;Temp;Humidity;BMP_temperature;BMP_pressure;BME280_temperature;BME280_humidity;BME280_pressure;Samples;Min_cycle;Max_cycle;Signal;HPM_P1;HPM_P2
2021/09/06 00:01:52;;;;;;;83.05;37.33;;;;;;;14.14;100.00;98441.66;5047913;28;20053;-80
2021/09/06 00:04:19;;;;;;;71.97;35.50;;;;;;;14.17;100.00;98439.06;5047944;28;20097;-80
2021/09/06 00:06:49;;;;;;;67.43;34.05;;;;;;;14.15;100.00;98440.50;5031142;28;20048;-80
2021/09/06 00:09:16;;;;;;;69.55;33.47;;;;;;;14.12;100.00;98439.22;5031102;28;20037;-80
2021/09/06 00:11:43;;;;;;;82.18;37.38;;;;;;;14.02;100.00;98438.72;5037251;28;20048;-77
2021/09/06 00:14:10;;;;;;;76.57;37.28;;;;;;;14.02;100.00;98430.56;5038093;28;20038;-80
2021/09/06 00:16:36;;;;;;;81.07;37.13;;;;;;;13.89;100.00;98429.56;5055741;28;20045;-80
2021/09/06 00:19:03;;;;;;;78.30;36.22;;;;;;;13.86;100.00;98427.47;5055759;28;20107;-79
2021/09/06 00:21:32;;;;;;;79.97;35.95;;;;;;;13.89;100.00;98426.03;5038628;28;20054;-80
2021/09/06 00:23:59;;;;;;;85.03;38.35;;;;;;;13.81;100.00;98435.78;5056154;28;20045;-81
2021/09/06 00:26:28;;;;;;;87.43;39.25;;;;;;;13.77;100.00;98426.66;5054896;28;20041;-80
2021/09/06 00:28:55;;;;;;;87.35;38.70;;;;;;;13.81;100.00;98429.56;5034283;28;20071;-81
2021/09/06 00:31:22;;;;;;;95.88;40.78;;;;;;;13.72;100.00;98433.06;5024119;28;20104;-80
2021/09/06 00:33:49;;;;;;;83.68;38.67;;;;;;;13.67;100.00;98413.34;5024579;28;20085;-81
2021/09/06 00:36:16;;;;;;;73.35;35.50;;;;;;;13.77;100.00;98434.03;5041634;28;20064;-81
2021/09/06 00:38:42;;;;;;;79.53;35.70;;;;;;;13.70;100.00;98415.44;5043200;28;20058;-79
2021/09/06 00:41:09;;;;;;;74.78;36.00;;;;;;;13.66;100.00;98419.91;5043387;28;20037;-80
2021/09/06 00:43:36;;;;;;;68.88;35.13;;;;;;;13.58;100.00;98424.19;5024878;28;20092;-80
2021/09/06 00:46:03;;;;;;;69.53;35.50;;;;;;;13.60;100.00;98418.47;5024170;28;20049;-80
2021/09/06 00:48:31;;;;;;;74.32;35.25;;;;;;;13.49;100.00;98417.94;5023123;28;20046;-81
2021/09/06 00:50:58;;;;;;;74.38;34.95;;;;;;;13.48;100.00;98420.94;5008124;28;20104;-81
2021/09/06 00:53:24;;;;;;;85.43;37.00;;;;;;;13.34;100.00;98423.78;5024487;28;20420;-80
2021/09/06 00:55:52;;;;;;;102.60;44.42;;;;;;;13.29;100.00;98423.13;5024925;28;20587;-80
2021/09/06 00:58:19;;;;;;;104.95;40.65;;;;;;;13.36;100.00;98424.28;5043226;28;20060;-80
2021/09/06 01:00:46;;;;;;;84.68;39.03;;;;;;;13.18;100.00;98419.88;5025145;28;20232;-80
2021/09/06 01:03:12;;;;;;;78.00;38.13;;;;;;;13.18;100.00;98429.94;5026233;28;20041;-80
2021/09/06 01:05:39;;;;;;;72.95;35.45;;;;;;;13.16;100.00;98419.38;5027796;28;20045;-80
2021/09/06 01:08:06;;;;;;;81.32;38.33;;;;;;;13.06;100.00;98419.59;5046612;28;20049;-80
2021/09/06 01:10:33;;;;;;;90.95;41.88;;;;;;;13.13;100.00;98430.88;5045533;28;20041;-81
2021/09/06 01:13:00;;;;;;;73.95;32.83;;;;;;;13.14;100.00;98418.09;5026394;28;20063;-80
2021/09/06 01:15:33;;;;;;;72.95;34.50;;;;;;;13.08;100.00;98431.03;5026977;28;20045;-81
2021/09/06 01:17:59;;;;;;;80.28;34.65;;;;;;;13.14;100.00;98431.69;5042107;28;20307;-81
2021/09/06 01:20:27;;;;;;;72.75;33.15;;;;;;;13.06;100.00;98433.19;5023584;28;20354;-81
2021/09/06 01:22:54;;;;;;;64.00;30.10;;;;;;;13.11;100.00;98430.38;5022768;28;20125;-80
2021/09/06 01:25:20;;;;;;;63.08;30.42;;;;;;;13.03;100.00;98428.41;5024071;28;20136;-82
2021/09/06 01:27:47;;;;;;;65.22;31.02;;;;;;;12.86;100.00;98428.28;5027766;28;20049;-82
2021/09/06 01:30:16;;;;;;;62.88;30.55;;;;;;;12.87;100.00;98433.41;5011709;28;20041;-81
2021/09/06 01:32:46;;;;;;;60.20;30.67;;;;;;;12.83;100.00;98447.91;5027656;28;20481;-81
2021/09/06 01:35:12;;;;;;;56.85;29.55;;;;;;;12.73;100.00;98438.09;5005392;28;20067;-79
2021/09/06 01:37:39;;;;;;;57.60;29.42;;;;;;;12.72;100.00;98439.22;5017859;28;20048;-79
2021/09/06 01:40:06;;;;;;;55.97;28.33;;;;;;;12.77;100.00;98432.88;5016665;28;20041;-80
2021/09/06 01:42:33;;;;;;;54.78;28.15;;;;;;;12.84;100.00;98438.66;5016735;28;20060;-80
2021/09/06 01:45:04;;;;;;;58.72;29.08;;;;;;;12.71;100.00;98432.19;5018458;28;20128;-79
2021/09/06 01:47:31;;;;;;;55.75;28.52;;;;;;;12.62;100.00;98435.94;5036390;28;20056;-80
2021/09/06 01:49:58;;;;;;;56.05;29.88;;;;;;;12.54;100.00;98437.50;5035722;28;20168;-78
2021/09/06 01:52:25;;;;;;;56.13;29.05;;;;;;;12.63;100.00;98441.06;5036400;28;20067;-79
2021/09/06 01:54:52;;;;;;;54.80;27.05;;;;;;;12.50;100.00;98431.06;5036580;28;20486;-79
2021/09/06 01:57:18;;;;;;;44.78;23.10;;;;;;;12.61;100.00;98440.56;5018999;28;20049;-80
2021/09/06 01:59:45;;;;;;;49.80;23.52;;;;;;;12.66;100.00;98443.16;5035949;28;20042;-80
2021/09/06 02:02:11;;;;;;;294.73;29.23;;;;;;;12.58;100.00;98437.66;5022338;28;20056;-80
2021/09/06 02:04:40;;;;;;;57.53;29.15;;;;;;;12.65;100.00;98429.88;5017386;28;20192;-78
2021/09/06 02:07:08;;;;;;;101.18;28.48;;;;;;;12.46;100.00;98440.94;4997755;28;20050;-79
2021/09/06 02:09:35;;;;;;;70.35;32.45;;;;;;;12.53;100.00;98441.31;5015266;28;20045;-80
2021/09/06 02:12:01;;;;;;;66.10;33.60;;;;;;;12.44;100.00;98437.72;5015446;28;20057;-79
2021/09/06 02:14:29;;;;;;;63.50;31.17;;;;;;;12.38;100.00;98447.91;5005227;28;20046;-80
2021/09/06 02:16:56;;;;;;;57.35;28.23;;;;;;;12.36;100.00;98441.19;5008034;28;20051;-81
2021/09/06 02:19:23;;;;;;;56.55;28.85;;;;;;;12.31;100.00;98433.94;5040333;28;20038;-80
2021/09/06 02:21:49;;;;;;;57.20;29.67;;;;;;;12.35;100.00;98437.66;5040092;28;20053;-80
2021/09/06 02:24:17;;;;;;;53.80;28.23;;;;;;;12.31;100.00;98444.00;5039122;28;20051;-80
2021/09/06 02:26:43;;;;;;;56.63;28.77;;;;;;;12.52;100.00;98454.09;5039927;28;20049;-81
2021/09/06 02:29:11;;;;;;;70.18;30.17;;;;;;;12.69;100.00;98452.63;5039537;28;20042;-80
2021/09/06 02:31:38;;;;;;;65.10;30.50;;;;;;;12.77;100.00;98460.03;5037644;28;20041;-81
2021/09/06 02:34:05;;;;;;;57.70;28.40;;;;;;;12.74;100.00;98460.66;5020971;28;20045;-81
2021/09/06 02:36:33;;;;;;;56.63;29.40;;;;;;;12.35;100.00;98445.00;5037023;28;20120;-81
2021/09/06 02:39:02;;;;;;;55.80;28.45;;;;;;;12.50;100.00;98458.22;5035660;28;20045;-80
2021/09/06 02:41:29;;;;;;;57.45;29.08;;;;;;;12.43;100.00;98457.84;5019099;28;20048;-81
2021/09/06 02:43:56;;;;;;;70.72;29.55;;;;;;;12.69;100.00;98450.72;5037556;28;20198;-80
2021/09/06 02:46:22;;;;;;;62.38;30.80;;;;;;;12.74;100.00;98438.91;5036643;28;20486;-80
2021/09/06 02:48:49;;;;;;;60.28;29.77;;;;;;;12.59;100.00;98442.81;5019102;28;20056;-81
2021/09/06 02:51:16;;;;;;;59.17;28.75;;;;;;;12.08;100.00;98455.94;5037044;28;20046;-81
2021/09/06 02:53:43;;;;;;;56.08;27.70;;;;;;;12.05;100.00;98432.91;5035787;28;20184;-80
2021/09/06 02:56:09;;;;;;;57.90;28.60;;;;;;;12.04;100.00;98442.16;5036955;28;20050;-80
2021/09/06 02:58:37;;;;;;;53.80;28.38;;;;;;;12.05;100.00;98441.06;5020877;28;20033;-81
2021/09/06 03:01:03;;;;;;;50.85;26.95;;;;;;;12.00;100.00;98430.28;5024689;28;20086;-80
2021/09/06 03:03:30;;;;;;;48.38;24.98;;;;;;;11.98;100.00;98440.63;5028428;28;20053;-80
2021/09/06 03:05:58;;;;;;;51.53;25.50;;;;;;;11.94;100.00;98439.66;5046772;28;20037;-81
2021/09/06 03:08:25;;;;;;;42.10;23.70;;;;;;;11.87;100.00;98436.56;5031082;28;20057;-81
2021/09/06 03:10:55;;;;;;;38.58;20.98;;;;;;;11.99;100.00;98441.44;5020723;28;20064;-79
2021/09/06 03:13:22;;;;;;;42.65;22.25;;;;;;;11.91;100.00;98437.53;5055111;28;20247;-81
2021/09/06 03:15:49;;;;;;;48.50;24.77;;;;;;;11.94;100.00;98434.22;5034336;28;20076;-81
2021/09/06 03:18:16;;;;;;;75.57;28.88;;;;;;;11.97;100.00;98447.19;5029163;28;20061;-81
2021/09/06 03:20:42;;;;;;;141.60;34.05;;;;;;;12.02;100.00;98454.41;5030114;28;20052;-82
2021/09/06 03:23:09;;;;;;;137.32;34.40;;;;;;;11.99;100.00;98442.25;5051103;28;20055;-80
2021/09/06 03:25:36;;;;;;;93.75;35.20;;;;;;;11.98;100.00;98437.13;5034260;28;20037;-80
2021/09/06 03:28:03;;;;;;;98.03;31.70;;;;;;;11.97;100.00;98452.63;5012881;28;20049;-80
2021/09/06 03:30:30;;;;;;;114.35;30.63;;;;;;;11.77;100.00;98442.97;5047627;28;20048;-80
2021/09/06 03:32:57;;;;;;;342.83;38.35;;;;;;;11.74;100.00;98437.38;5045649;28;20041;-79
2021/09/06 03:35:24;;;;;;;84.93;34.10;;;;;;;11.87;100.00;98442.75;5056669;28;20065;-81
2021/09/06 03:37:51;;;;;;;89.97;35.67;;;;;;;11.94;100.00;98447.00;5048526;28;20500;-81
2021/09/06 03:40:17;;;;;;;91.90;34.13;;;;;;;11.78;100.00;98438.34;5039096;28;20037;-79
2021/09/06 03:42:44;;;;;;;82.45;34.65;;;;;;;11.87;100.00;98444.69;5064371;28;20053;-80
2021/09/06 03:45:12;;;;;;;152.80;36.13;;;;;;;11.79;100.00;98440.75;5046178;28;20049;-80
2021/09/06 03:47:39;;;;;;;165.80;38.38;;;;;;;11.71;100.00;98440.69;5046463;28;20053;-79
2021/09/06 03:50:06;;;;;;;170.60;39.63;;;;;;;11.76;100.00;98440.56;5045779;28;20047;-79
2021/09/06 03:52:33;;;;;;;120.78;35.25;;;;;;;11.64;100.00;98449.19;5030276;28;20046;-80
2021/09/06 03:54:59;;;;;;;307.15;35.67;;;;;;;11.58;100.00;98436.84;5035226;28;20508;-80
2021/09/06 03:57:26;;;;;;;392.90;34.17;;;;;;;11.54;100.00;98432.28;5045163;28;20052;-80
2021/09/06 03:59:53;;;;;;;95.28;34.38;;;;;;;11.56;100.00;98444.44;5043115;28;20033;-81
2021/09/06 04:02:20;;;;;;;72.85;33.13;;;;;;;11.65;100.00;98428.28;5056156;28;20045;-82
2021/09/06 04:04:59;;;;;;;78.68;32.35;;;;;;;11.71;100.00;98446.91;5011241;28;20042;-81
2021/09/06 04:07:30;;;;;;;101.53;31.42;;;;;;;11.72;100.00;98447.69;5006341;28;20489;-83
2021/09/06 04:09:59;;;;;;;88.40;33.28;;;;;;;11.74;100.00;98431.94;5045409;28;20067;-82
2021/09/06 04:12:29;;;;;;;139.35;34.60;;;;;;;11.71;100.00;98441.50;5037702;28;20048;-82
2021/09/06 04:14:56;;;;;;;97.13;31.75;;;;;;;11.67;100.00;98436.91;5037888;28;20412;-80
2021/09/06 04:17:25;;;;;;;160.82;36.40;;;;;;;11.78;100.00;98446.50;5040459;28;20044;-82
2021/09/06 04:19:54;;;;;;;223.20;36.55;;;;;;;11.50;100.00;98444.88;5056534;28;20136;-78
2021/09/06 04:22:20;;;;;;;226.57;35.25;;;;;;;11.20;100.00;98459.81;5054020;28;20564;-77
2021/09/06 04:24:47;;;;;;;155.38;34.35;;;;;;;11.19;100.00;98464.41;5038275;28;20045;-79
2021/09/06 04:27:14;;;;;;;172.23;36.05;;;;;;;11.27;100.00;98473.75;5038142;28;20051;-79
2021/09/06 04:29:41;;;;;;;221.27;38.28;;;;;;;11.51;100.00;98457.31;5054284;28;20049;-82
2021/09/06 04:32:07;;;;;;;260.52;41.95;;;;;;;11.56;100.00;98452.59;5056491;28;20065;-82
2021/09/06 04:34:34;;;;;;;184.25;38.47;;;;;;;11.71;100.00;98465.09;5039237;28;20041;-82
2021/09/06 04:37:02;;;;;;;201.00;41.15;;;;;;;11.76;100.00;98465.00;5022528;28;20448;-82
2021/09/06 04:39:28;;;;;;;160.07;39.05;;;;;;;11.87;100.00;98471.81;5039316;28;20045;-82
2021/09/06 04:41:55;;;;;;;215.05;41.13;;;;;;;11.90;100.00;98475.84;5058877;28;20037;-81
2021/09/06 04:44:22;;;;;;;242.02;42.30;;;;;;;12.06;100.00;98479.81;5041245;28;20040;-82
2021/09/06 04:46:48;;;;;;;270.10;40.53;;;;;;;11.96;100.00;98469.19;5036479;28;20484;-82
2021/09/06 04:49:15;;;;;;;200.27;36.90;;;;;;;12.12;100.00;98481.34;5055059;28;20075;-81
2021/09/06 04:51:42;;;;;;;138.30;37.80;;;;;;;12.06;100.00;98472.50;5027977;28;20044;-81
2021/09/06 04:54:09;;;;;;;135.57;40.33;;;;;;;12.11;100.00;98480.53;5023467;28;20053;-82
2021/09/06 04:56:36;;;;;;;129.50;42.60;;;;;;;12.29;100.00;98471.44;5015754;28;20052;-81
2021/09/06 04:59:03;;;;;;;152.85;50.55;;;;;;;12.52;100.00;98480.44;5035653;28;20041;-80
2021/09/06 05:01:30;;;;;;;182.43;53.97;;;;;;;12.81;100.00;98482.75;5003084;28;20045;-80
2021/09/06 05:03:57;;;;;;;201.07;55.85;;;;;;;13.11;100.00;98488.28;5013510;28;20056;-81
2021/09/06 05:06:24;;;;;;;138.93;52.05;;;;;;;13.27;100.00;98480.53;4997368;28;20078;-81
2021/09/06 05:08:51;;;;;;;156.90;49.90;;;;;;;13.46;100.00;98489.28;5013628;28;20045;-81
2021/09/06 05:11:17;;;;;;;162.18;47.95;;;;;;;13.50;100.00;98484.81;4997456;28;20318;-81
2021/09/06 05:13:44;;;;;;;144.18;47.88;;;;;;;13.62;100.00;98473.34;5014732;28;20041;-81
2021/09/06 05:16:11;;;;;;;139.35;45.28;;;;;;;13.78;100.00;98492.78;5033998;28;20485;-82
2021/09/06 05:18:38;;;;;;;209.27;47.63;;;;;;;13.73;100.00;98477.38;5034136;28;20451;-81
2021/09/06 05:21:09;;;;;;;129.93;42.20;;;;;;;13.88;100.00;98495.22;5000083;28;20547;-82
2021/09/06 05:23:52;;;;;;;123.93;41.53;;;;;;;13.79;100.00;98475.31;5031916;28;20049;-81
2021/09/06 05:26:34;;;;;;;113.00;40.08;;;;;;;14.04;100.00;98499.91;5014478;28;20437;-80
2021/09/06 05:29:14;;;;;;;;;;;;;;;;;;;;;
2021/09/06 05:31:56;;;;;;;87.28;37.17;;;;;;;14.12;100.00;98492.88;5029568;28;20069;-82
2021/09/06 05:34:42;;;;;;;107.45;38.50;;;;;;;14.05;100.00;98504.25;4997235;28;20143;-82
2021/09/06 05:37:31;;;;;;;121.22;39.65;;;;;;;14.11;100.00;98505.72;5009628;28;20430;-82
2021/09/06 05:40:24;;;;;;;137.55;40.28;;;;;;;14.13;100.00;98484.41;4999047;28;20046;-82
2021/09/06 05:43:07;;;;;;;101.75;39.40;;;;;;;14.28;100.00;98492.13;4996080;28;20092;-82
2021/09/06 05:45:47;;;;;;;92.13;37.65;;;;;;;14.32;100.00;98473.28;5023282;28;20104;-81
2021/09/06 05:48:17;;;;;;;110.75;40.10;;;;;;;14.50;100.00;98504.88;5015921;28;20111;-81
2021/09/06 05:50:53;;;;;;;88.47;38.92;;;;;;;14.43;100.00;98485.44;5016744;28;20433;-82
2021/09/06 05:53:25;;;;;;;101.17;38.73;;;;;;;14.53;100.00;98506.16;5002772;28;20050;-83
2021/09/06 05:55:53;;;;;;;94.18;38.13;;;;;;;14.44;100.00;98499.88;5012353;28;20493;-82
2021/09/06 05:58:33;;;;;;;113.57;37.40;;;;;;;14.62;100.00;98513.19;5012156;28;20208;-83
2021/09/06 06:01:01;;;;;;;116.80;39.53;;;;;;;14.68;100.00;98502.94;4996931;28;20041;-83
2021/09/06 06:03:38;;;;;;;99.05;40.58;;;;;;;14.82;100.00;98498.94;5015277;28;20061;-83
2021/09/06 06:06:05;;;;;;;90.68;39.13;;;;;;;14.85;100.00;98503.75;5007009;28;20056;-82
2021/09/06 06:08:32;;;;;;;91.22;38.40;;;;;;;14.94;100.00;98498.31;5027237;28;20038;-79
2021/09/06 06:10:59;;;;;;;91.63;38.60;;;;;;;15.06;100.00;98509.34;5032907;28;20051;-83
2021/09/06 06:13:27;;;;;;;86.97;37.58;;;;;;;15.17;100.00;98509.81;5031150;28;20045;-84
2021/09/06 06:15:56;;;;;;;105.35;39.60;;;;;;;15.22;100.00;98512.38;4995669;28;20457;-83
2021/09/06 06:18:31;;;;;;;94.50;38.45;;;;;;;15.36;100.00;98521.16;4995945;28;20109;-83
2021/09/06 06:20:58;;;;;;;121.43;39.20;;;;;;;15.23;100.00;98498.41;4995656;28;20526;-82
2021/09/06 06:23:27;;;;;;;84.53;36.40;;;;;;;15.53;100.00;98521.97;4994859;28;20042;-82
2021/09/06 06:25:56;;;;;;;88.78;37.05;;;;;;;15.44;100.00;98512.16;4996190;28;20433;-84
2021/09/06 06:28:23;;;;;;;74.28;34.80;;;;;;;15.58;100.00;98504.63;5018051;28;20053;-83
2021/09/06 06:30:50;;;;;;;72.18;34.10;;;;;;;15.61;100.00;98503.16;5012874;28;20080;-82
2021/09/06 06:33:17;;;;;;;77.07;34.75;;;;;;;15.70;100.00;98512.91;5038152;28;20274;-83
2021/09/06 06:35:44;;;;;;;76.60;36.85;;;;;;;15.74;100.00;98515.81;5057495;28;20053;-83
2021/09/06 06:38:10;;;;;;;78.25;36.78;;;;;;;15.87;100.00;98510.13;5028491;28;20491;-82
2021/09/06 06:40:37;;;;;;;73.82;34.45;;;;;;;16.01;100.00;98507.16;5031534;28;20049;-82
2021/09/06 06:43:04;;;;;;;77.60;36.47;;;;;;;16.20;100.00;98516.56;5014449;28;20084;-82
2021/09/06 06:45:31;;;;;;;79.22;37.65;;;;;;;16.30;100.00;98526.31;4995135;28;20115;-82
2021/09/06 06:47:58;;;;;;;93.20;38.83;;;;;;;16.32;100.00;98526.78;4978124;28;20054;-82
2021/09/06 06:50:26;;;;;;;76.18;37.72;;;;;;;16.35;100.00;98525.31;4995064;28;20038;-82
2021/09/06 06:52:54;;;;;;;85.03;37.60;;;;;;;16.52;100.00;98523.31;5010694;28;20458;-83
2021/09/06 06:55:25;;;;;;;87.95;39.55;;;;;;;16.63;100.00;98505.38;5012501;28;20049;-82
2021/09/06 06:57:52;;;;;;;82.90;38.83;;;;;;;16.85;100.00;98515.19;5012581;28;20056;-83
2021/09/06 07:00:21;;;;;;;83.40;39.70;;;;;;;16.79;100.00;98505.59;4996618;28;20049;-83
2021/09/06 07:02:50;;;;;;;90.18;40.53;;;;;;;16.79;100.00;98497.38;5013228;28;20049;-83
2021/09/06 07:05:18;;;;;;;83.78;38.92;;;;;;;17.05;100.00;98516.31;4995213;28;20050;-81
2021/09/06 07:07:47;;;;;;;82.97;38.78;;;;;;;17.09;100.00;98519.97;4978287;28;20058;-83
2021/09/06 07:10:16;;;;;;;85.57;40.40;;;;;;;17.02;100.00;98509.56;5028840;28;20123;-83
2021/09/06 07:12:43;;;;;;;78.28;39.13;;;;;;;17.33;100.00;98515.41;5015802;28;20437;-83
2021/09/06 07:15:11;;;;;;;78.28;39.15;;;;;;;17.25;100.00;98510.81;4999324;28;20058;-84
2021/09/06 07:17:38;;;;;;;80.43;40.20;;;;;;;17.30;100.00;98518.00;5022280;28;20446;-84
2021/09/06 07:20:06;;;;;;;82.85;39.63;;;;;;;17.68;100.00;98539.72;5034670;28;20080;-83
2021/09/06 07:22:33;;;;;;;80.38;39.90;;;;;;;17.96;100.00;98544.19;5035267;28;20076;-83
2021/09/06 07:25:00;;;;;;;80.80;40.10;;;;;;;17.86;100.00;98535.66;5054476;28;20041;-84
2021/09/06 07:27:31;;;;;;;71.35;37.20;;;;;;;17.99;100.00;98534.50;5021872;28;20063;-84
2021/09/06 07:29:58;;;;;;;80.18;40.20;;;;;;;18.15;100.00;98551.88;5051680;28;20033;-81
2021/09/06 07:32:25;;;;;;;74.85;39.78;;;;;;;18.18;100.00;98529.25;5051687;28;20488;-83
2021/09/06 07:34:51;;;;;;;74.72;38.10;;;;;;;18.55;100.00;98549.28;5017923;28;20420;-83
2021/09/06 07:37:19;;;;;;;77.25;39.67;;;;;;;18.76;100.00;98549.13;5034206;28;20049;-84
2021/09/06 07:39:47;;;;;;;71.70;37.92;;;;;;;18.85;100.00;98556.06;5034202;28;20048;-83
2021/09/06 07:42:14;;;;;;;62.75;35.55;;;;;;;18.97;100.00;98555.25;5052176;28;20037;-83
2021/09/06 07:44:42;;;;;;;62.72;34.88;;;;;;;19.01;100.00;98547.91;5034888;28;20271;-83
2021/09/06 07:47:09;;;;;;;64.82;35.17;;;;;;;19.07;100.00;98538.31;5036744;28;20344;-81
2021/09/06 07:49:36;;;;;;;71.05;37.22;;;;;;;19.42;100.00;98553.06;5027195;28;20182;-82
2021/09/06 07:52:03;;;;;;;63.95;34.83;;;;;;;19.19;100.00;98539.06;5037187;28;20041;-82
2021/09/06 07:54:32;;;;;;;61.58;34.30;;;;;;;19.28;100.00;98534.19;5031946;28;20025;-83
2021/09/06 07:57:01;;;;;;;60.03;34.10;;;;;;;19.51;100.00;98550.94;5015908;28;20041;-82
2021/09/06 07:59:31;;;;;;;58.10;33.65;;;;;;;19.54;100.00;98554.94;5001618;28;20512;-82
2021/09/06 08:01:58;;;;;;;54.95;33.08;;;;;;;19.91;100.00;98559.09;5018423;28;20073;-82
2021/09/06 08:04:26;;;;;;;58.33;33.75;;;;;;;20.33;100.00;98567.66;5018776;28;20041;-82
2021/09/06 08:06:53;;;;;;;58.40;33.25;;;;;;;20.36;100.00;98548.47;5018499;28;20072;-82
2021/09/06 08:09:20;;;;;;;57.08;32.22;;;;;;;20.24;100.00;98547.75;5019057;28;20437;-82
2021/09/06 08:11:48;;;;;;;51.80;29.85;;;;;;;20.46;100.00;98550.69;5018937;28;20046;-83
2021/09/06 08:14:16;;;;;;;50.17;29.42;;;;;;;20.63;100.00;98563.25;5019640;28;20080;-83
2021/09/06 08:16:43;;;;;;;52.55;30.08;;;;;;;20.76;100.00;98559.22;5020465;28;20049;-83
2021/09/06 08:19:10;;;;;;;52.55;30.38;;;;;;;20.82;100.00;98544.03;5020232;28;20046;-81
2021/09/06 08:21:37;;;;;;;54.13;30.42;;;;;;;21.07;100.00;98558.38;5019686;28;20413;-82
2021/09/06 08:24:06;;;;;;;52.47;30.55;;;;;;;21.33;100.00;98546.72;5036909;28;20041;-81
2021/09/06 08:26:34;;;;;;;48.40;29.90;;;;;;;21.56;100.00;98547.56;5019065;28;20064;-83
2021/09/06 08:29:00;;;;;;;48.80;29.20;;;;;;;21.34;100.00;98557.38;5018867;28;20476;-83
2021/09/06 08:31:30;;;;;;;46.03;28.40;;;;;;;21.83;100.00;98548.47;5035522;28;20038;-82
2021/09/06 08:33:58;;;;;;;53.72;28.38;;;;;;;22.05;100.00;98550.44;5038062;23;20050;-80
2021/09/06 08:36:25;;;;;;;49.33;29.42;;;;;;;22.35;100.00;98565.94;5035951;28;20045;-81
2021/09/06 08:38:51;;;;;;;43.78;26.77;;;;;;;22.40;100.00;98561.28;5018920;28;20543;-80
2021/09/06 08:41:18;;;;;;;46.17;28.35;;;;;;;22.62;100.00;98561.28;5053740;28;20048;-81
2021/09/06 08:43:45;;;;;;;42.13;27.38;;;;;;;22.77;100.00;98562.28;5034519;28;20053;-81
2021/09/06 08:46:11;;;;;;;47.47;25.67;;;;;;;22.75;100.00;98564.63;5034127;28;20053;-81
2021/09/06 08:48:38;;;;;;;40.67;26.67;;;;;;;22.97;100.00;98560.97;5018613;23;20065;-81
2021/09/06 08:51:05;;;;;;;41.85;26.92;;;;;;;23.05;100.00;98559.91;5012215;28;20086;-81
2021/09/06 08:53:32;;;;;;;46.45;27.20;;;;;;;22.87;100.00;98565.19;4975097;28;20380;-82
2021/09/06 08:56:02;;;;;;;39.72;26.30;;;;;;;23.26;100.00;98567.69;4975824;28;20620;-82
2021/09/06 08:58:43;;;;;;;45.88;26.02;;;;;;;23.31;100.00;98568.16;4977902;28;20085;-80
2021/09/06 09:01:10;;;;;;;46.20;26.00;;;;;;;23.63;100.00;98570.53;4980707;28;20547;-83
2021/09/06 09:03:37;;;;;;;43.83;26.63;;;;;;;23.52;100.00;98562.91;4995396;28;20195;-81
2021/09/06 09:06:05;;;;;;;45.33;26.33;;;;;;;23.35;100.00;98570.97;4995451;28;20041;-84
2021/09/06 09:08:33;;;;;;;43.47;25.00;;;;;;;23.13;100.00;98569.88;4994890;28;20133;-81
2021/09/06 09:11:05;;;;;;;40.47;25.08;;;;;;;23.06;100.00;98569.00;5013076;28;20050;-84
2021/09/06 09:13:35;;;;;;;43.92;25.23;;;;;;;23.48;100.00;98564.84;5016638;28;20052;-84
2021/09/06 09:16:01;;;;;;;36.72;24.25;;;;;;;23.37;100.00;98563.13;5014033;28;20046;-81
2021/09/06 09:18:33;;;;;;;39.20;24.77;;;;;;;23.40;100.00;98568.72;5014280;28;20513;-81
2021/09/06 09:21:07;;;;;;;41.63;23.63;;;;;;;23.48;100.00;98569.59;5014130;28;20049;-84
2021/09/06 09:23:42;;;;;;;36.15;23.95;;;;;;;23.26;100.00;98576.78;5013787;28;20390;-82
2021/09/06 09:26:10;;;;;;;37.75;23.25;;;;;;;23.66;100.00;98567.81;5013022;28;20049;-83
2021/09/06 09:28:46;;;;;;;39.28;23.20;;;;;;;23.79;100.00;98560.84;5012041;28;20046;-82
2021/09/06 09:31:18;;;;;;;37.10;23.30;;;;;;;24.29;100.00;98570.44;4995976;28;20532;-83
2021/09/06 09:33:53;;;;;;;37.55;21.13;;;;;;;24.71;100.00;98573.53;5011915;28;20274;-81
2021/09/06 09:36:31;;;;;;;39.63;23.00;;;;;;;23.73;100.00;98565.13;5012234;28;20069;-82
2021/09/06 09:39:11;;;;;;;34.53;21.40;;;;;;;24.63;100.00;98566.34;5012311;28;20113;-82
2021/09/06 09:41:40;;;;;;;31.67;20.67;;;;;;;24.56;100.00;98563.53;5012123;28;20075;-83
2021/09/06 09:44:26;;;;;;;32.67;21.20;;;;;;;24.95;100.00;98563.84;5012424;28;20046;-81
2021/09/06 09:46:57;;;;;;;35.28;22.27;;;;;;;25.18;100.00;98569.91;4996681;28;20125;-81
2021/09/06 09:49:25;;;;;;;31.48;20.35;;;;;;;24.34;100.00;98561.78;4993093;28;20072;-82
2021/09/06 09:51:53;;;;;;;32.70;20.45;;;;;;;25.01;100.00;98558.72;4996516;28;20076;-82
2021/09/06 09:54:23;;;;;;;33.35;19.52;;;;;;;25.87;100.00;98553.13;4993114;28;20046;-82
2021/09/06 09:56:50;;;;;;;30.98;18.85;;;;;;;26.40;100.00;98545.66;5010074;28;20123;-81
2021/09/06 09:59:18;;;;;;;29.58;18.92;;;;;;;26.78;100.00;98546.84;4994665;28;20042;-83
2021/09/06 10:02:09;;;;;;;35.85;20.15;;;;;;;25.96;100.00;98550.78;4994916;28;20089;-83
2021/09/06 10:05:00;;;;;;;31.00;19.35;;;;;;;26.68;100.00;98552.38;5022997;28;20181;-83
2021/09/06 10:07:32;;;;;;;31.58;19.63;;;;;;;26.87;100.00;98541.66;5021299;28;20053;-83
2021/09/06 10:10:12;;;;;;;32.97;19.75;;;;;;;27.27;95.69;98534.78;5025818;28;20410;-85
2021/09/06 10:12:38;;;;;;;32.65;19.73;;;;;;;28.86;70.11;98533.69;5012652;28;20034;-84
2021/09/06 10:15:06;;;;;;;27.35;19.10;;;;;;;28.04;79.35;98536.41;4997168;28;20137;-84
2021/09/06 10:17:41;;;;;;;30.30;18.52;;;;;;;28.52;69.58;98539.19;5016949;28;20037;-86
2021/09/06 10:20:11;;;;;;;25.73;18.08;;;;;;;30.00;55.68;98528.31;5010511;28;20073;-83
2021/09/06 10:22:43;;;;;;;29.23;17.52;;;;;;;29.21;57.08;98538.13;5009709;28;20237;-84
2021/09/06 10:25:12;;;;;;;26.63;17.10;;;;;;;30.92;52.32;98524.75;5008244;28;20104;-84
2021/09/06 10:27:53;;;;;;;27.27;16.73;;;;;;;32.05;45.99;98525.22;5009379;28;20053;-84
2021/09/06 10:30:31;;;;;;;21.73;14.27;;;;;;;33.39;43.83;98520.91;4988800;28;20046;-84
2021/09/06 10:32:58;;;;;;;22.60;15.82;;;;;;;32.77;43.44;98520.19;5014349;28;20187;-84
2021/09/06 10:35:28;;;;;;;21.17;15.57;;;;;;;33.42;41.89;98517.19;4992523;28;20174;-85
2021/09/06 10:38:05;;;;;;;21.23;15.93;;;;;;;33.16;42.07;98519.16;4976063;28;20054;-83
2021/09/06 10:40:35;;;;;;;24.92;16.35;;;;;;;32.64;43.00;98525.75;5003590;28;20042;-83
2021/09/06 10:43:17;;;;;;;23.00;15.98;;;;;;;33.14;43.88;98528.00;4988308;28;20050;-85
2021/09/06 10:45:47;;;;;;;22.85;17.10;;;;;;;34.39;37.64;98509.72;5021307;28;20065;-83
2021/09/06 10:48:24;;;;;;;22.10;15.75;;;;;;;32.14;45.45;98516.19;4991549;28;20484;-83
2021/09/06 10:50:52;;;;;;;18.38;14.30;;;;;;;34.55;41.35;98519.25;4993577;28;20129;-82
2021/09/06 10:53:21;;;;;;;20.38;15.50;;;;;;;34.89;37.74;98516.47;5004174;28;20294;-83
2021/09/06 10:55:53;;;;;;;20.83;16.05;;;;;;;35.05;36.50;98505.84;5005885;28;20050;-85
2021/09/06 10:58:22;;;;;;;22.10;15.68;;;;;;;33.45;38.38;98513.50;4989288;28;20413;-83
2021/09/06 11:00:53;;;;;;;26.75;15.57;;;;;;;31.01;42.59;98510.22;5008510;28;20038;-84
2021/09/06 11:03:21;;;;;;;20.25;15.13;;;;;;;34.14;39.19;98514.59;4990683;28;20081;-84
2021/09/06 11:05:57;;;;;;;20.00;14.48;;;;;;;34.36;38.52;98507.03;5008120;28;20049;-84
2021/09/06 11:08:28;;;;;;;17.60;14.32;;;;;;;33.35;39.82;98506.94;5008523;28;20045;-84
2021/09/06 11:11:03;;;;;;;22.95;14.50;;;;;;;35.19;37.91;98501.72;5006925;28;20045;-82
2021/09/06 11:13:38;;;;;;;18.17;14.98;;;;;;;35.16;36.31;98499.81;5012372;28;20042;-85
2021/09/06 11:16:07;;;;;;;18.05;13.52;;;;;;;35.93;34.18;98495.28;4978465;28;20153;-84
2021/09/06 11:18:43;;;;;;;22.58;13.02;;;;;;;34.07;35.39;98507.19;4993267;28;20060;-84